Time;durP1;ratioP1;P1;durP2;ratioP2;P2;SDS_P1;SDS_P2;PMS_P1;PMS_P2;Temp;Humidity;BMP_temperature;BMP_pressure;BME280_temperature;BME280_humidity;BME280_pressure;Samples;Min_cycle;Max_cycle;Signal;HPM_P1;HPM_P2
2023/04/01 00:00:55;;;;;;;4.30;1.02;;;10.60;99.90;;;;;;5076653;28;20051;-74
2023/04/01 00:03:22;;;;;;;1.30;0.68;;;10.60;99.90;;;;;;5075618;28;20025;-74
2023/04/01 00:05:48;;;;;;;3.13;0.80;;;10.60;99.90;;;;;;5076496;28;20029;-75
2023/04/01 00:08:14;;;;;;;2.72;0.63;;;10.60;99.90;;;;;;5076482;28;20036;-74
2023/04/01 00:10:40;;;;;;;3.92;0.88;;;10.60;99.90;;;;;;5075471;28;20021;-74
2023/04/01 00:13:06;;;;;;;4.65;1.20;;;10.60;99.90;;;;;;5076430;28;20077;-75
2023/04/01 00:15:31;;;;;;;3.88;1.00;;;10.60;99.90;;;;;;5076496;28;20436;-75
2023/04/01 00:17:57;;;;;;;6.63;1.13;;;10.60;99.90;;;;;;5076292;28;20033;-75
2023/04/01 00:20:23;;;;;;;2.75;0.80;;;10.60;99.90;;;;;;5075392;28;20047;-75
2023/04/01 00:22:48;;;;;;;3.22;1.00;;;10.60;99.90;;;;;;5076224;28;20025;-74
2023/04/01 00:25:14;;;;;;;1.92;1.05;;;10.60;99.90;;;;;;5076118;28;20025;-74
2023/04/01 00:27:40;;;;;;;5.40;1.10;;;10.60;99.90;;;;;;5076195;28;20037;-75
2023/04/01 00:30:07;;;;;;;3.00;0.70;;;10.70;99.90;;;;;;5076081;28;20036;-74
2023/04/01 00:32:33;;;;;;;3.40;1.08;;;10.70;99.90;;;;;;5076032;28;20077;-75
2023/04/01 00:34:59;;;;;;;4.13;1.08;;;10.70;99.90;;;;;;5075132;28;20021;-75
2023/04/01 00:37:25;;;;;;;3.47;1.20;;;10.70;99.90;;;;;;5075993;28;20025;-75
2023/04/01 00:39:51;;;;;;;4.93;0.93;;;10.70;99.90;;;;;;5074956;28;20035;-74
2023/04/01 00:42:17;;;;;;;4.72;0.90;;;10.70;99.90;;;;;;5074937;28;20029;-74
2023/04/01 00:44:47;;;;;;;3.00;0.80;;;10.70;99.90;;;;;;5074669;28;20060;-75
2023/04/01 00:47:14;;;;;;;3.17;0.70;;;10.70;99.90;;;;;;5075841;28;20017;-74
2023/04/01 00:49:44;;;;;;;2.05;0.85;;;10.60;99.90;;;;;;5058286;28;20025;-75
2023/04/01 00:52:13;;;;;;;2.20;0.88;;;10.70;99.90;;;;;;5075327;28;20017;-75
2023/04/01 00:54:42;;;;;;;2.47;0.98;;;10.70;99.90;;;;;;5074666;28;20032;-74
2023/04/01 00:57:09;;;;;;;2.80;1.17;;;10.70;99.90;;;;;;5074659;28;20045;-75
2023/04/01 00:59:45;;;;;;;2.40;1.00;;;10.70;99.90;;;;;;5075598;28;20047;-75
2023/04/01 01:02:14;;;;;;;3.08;1.45;;;10.70;99.90;;;;;;5075616;28;20037;-75
2023/04/01 01:04:40;;;;;;;1.75;1.05;;;10.70;99.90;;;;;;5075415;28;20100;-74
2023/04/01 01:07:11;;;;;;;2.22;0.90;;;10.70;99.90;;;;;;5075406;28;20020;-74
2023/04/01 01:09:41;;;;;;;3.65;1.27;;;10.70;99.90;;;;;;5074376;28;20033;-74
2023/04/01 01:12:20;;;;;;;3.72;1.52;;;10.70;99.90;;;;;;5075483;28;20055;-75
2023/04/01 01:15:10;;;;;;;2.85;1.30;;;10.70;99.90;;;;;;5075460;28;20017;-75
2023/04/01 01:18:05;;;;;;;3.78;1.60;;;10.80;99.90;;;;;;5074335;28;20036;-75
2023/04/01 01:20:43;;;;;;;3.85;1.60;;;10.80;99.90;;;;;;5074177;28;20025;-75
2023/04/01 01:23:30;;;;;;;2.75;1.55;;;10.80;99.90;;;;;;5074144;28;20025;-74
2023/04/01 01:26:09;;;;;;;3.35;1.70;;;10.80;99.90;;;;;;5073921;28;20096;-75
2023/04/01 01:28:55;;;;;;;2.83;1.70;;;10.80;99.90;;;;;;5075100;28;20047;-75
2023/04/01 01:31:32;;;;;;;5.75;2.00;;;10.80;99.90;;;;;;5075011;28;20051;-75
2023/04/01 01:34:19;;;;;;;3.38;1.70;;;10.80;99.90;;;;;;5074695;28;20025;-75
2023/04/01 01:36:48;;;;;;;4.05;2.33;;;10.80;99.90;;;;;;5074900;28;20027;-75
2023/04/01 01:39:14;;;;;;;5.10;1.92;;;10.80;99.90;;;;;;5074851;28;20025;-75
2023/04/01 01:41:42;;;;;;;4.28;2.33;;;10.80;99.90;;;;;;5074778;28;20021;-75
2023/04/01 01:44:11;;;;;;;4.55;1.77;;;10.80;99.90;;;;;;5074704;28;20078;-74
2023/04/01 01:46:39;;;;;;;3.65;1.90;;;10.80;99.90;;;;;;5073442;28;20052;-75
2023/04/01 01:49:07;;;;;;;4.90;2.10;;;10.80;99.90;;;;;;5074627;28;20036;-75
2023/04/01 01:51:34;;;;;;;4.68;2.33;;;10.80;99.90;;;;;;5074600;28;20028;-74
2023/04/01 01:53:59;;;;;;;3.83;2.05;;;10.80;99.90;;;;;;5073504;28;20044;-75
2023/04/01 01:56:27;;;;;;;4.82;2.20;;;10.90;99.90;;;;;;5074459;28;20371;-75
2023/04/01 01:59:00;;;;;;;5.75;2.65;;;10.80;99.90;;;;;;5074442;28;20025;-75
2023/04/01 02:01:33;;;;;;;3.45;2.35;;;10.80;99.90;;;;;;5073476;28;20048;-75
2023/04/01 02:03:59;;;;;;;4.45;2.67;;;10.80;99.90;;;;;;5072535;28;20033;-75
2023/04/01 02:06:29;;;;;;;5.05;2.83;;;10.80;99.90;;;;;;5074235;28;20021;-74
2023/04/01 02:09:00;;;;;;;5.47;2.70;;;10.80;99.90;;;;;;5073232;28;20028;-75
2023/04/01 02:11:43;;;;;;;5.40;2.63;;;10.80;99.90;;;;;;5073273;28;20052;-75
2023/04/01 02:14:47;;;;;;;4.82;2.88;;;10.80;99.90;;;;;;5073114;28;20306;-75
2023/04/01 02:17:18;;;;;;;6.43;2.88;;;10.80;99.90;;;;;;5049893;28;20035;-76
2023/04/01 02:19:58;;;;;;;5.10;2.72;;;10.80;99.90;;;;;;5074093;28;20017;-76
2023/04/01 02:22:28;;;;;;;6.43;2.95;;;10.80;99.90;;;;;;5074048;28;20049;-75
2023/04/01 02:24:58;;;;;;;4.80;2.45;;;10.80;99.90;;;;;;5073841;28;20021;-76
2023/04/01 02:27:24;;;;;;;5.47;3.10;;;10.80;99.90;;;;;;5073839;28;20132;-75
2023/04/01 02:29:51;;;;;;;5.28;2.90;;;10.80;99.90;;;;;;5072885;28;20051;-75
2023/04/01 02:32:19;;;;;;;5.18;2.92;;;10.70;99.90;;;;;;5073813;28;20036;-75
2023/04/01 02:34:45;;;;;;;5.35;2.97;;;10.80;99.90;;;;;;5072866;28;20048;-75
2023/04/01 02:37:12;;;;;;;7.88;3.70;;;10.80;99.90;;;;;;5073845;28;20025;-76
2023/04/01 02:39:38;;;;;;;7.72;3.92;;;10.80;99.90;;;;;;5072881;28;20126;-75
2023/04/01 02:42:04;;;;;;;8.30;4.10;;;10.80;99.90;;;;;;5072658;28;20025;-75
2023/04/01 02:44:29;;;;;;;8.07;3.95;;;10.80;99.90;;;;;;5072398;28;20371;-76
2023/04/01 02:46:55;;;;;;;8.10;3.90;;;10.80;99.90;;;;;;5072728;28;20036;-75
2023/04/01 02:49:21;;;;;;;7.45;3.63;;;10.80;99.90;;;;;;5073496;28;20020;-76
2023/04/01 02:51:47;;;;;;;6.05;3.00;;;10.80;99.90;;;;;;5073475;28;20033;-75
2023/04/01 02:54:12;;;;;;;5.80;3.10;;;10.70;99.90;;;;;;5073445;28;20029;-74
2023/04/01 02:56:38;;;;;;;6.75;3.58;;;10.70;99.90;;;;;;5073438;28;20025;-75
2023/04/01 02:59:04;;;;;;;6.10;3.22;;;10.70;99.90;;;;;;5073361;28;20033;-75
2023/04/01 03:01:29;;;;;;;5.88;2.95;;;10.70;99.90;;;;;;5072306;28;20025;-75
2023/04/01 03:03:55;;;;;;;6.18;2.97;;;10.70;99.90;;;;;;5072405;28;20021;-75
2023/04/01 03:06:21;;;;;;;6.47;2.55;;;10.70;99.90;;;;;;5073250;28;20033;-76
2023/04/01 03:08:47;;;;;;;5.75;2.70;;;10.70;99.90;;;;;;5072341;28;20029;-75
2023/04/01 03:11:13;;;;;;;6.25;3.10;;;10.70;99.90;;;;;;5072261;28;20052;-75
2023/04/01 03:13:38;;;;;;;7.40;3.58;;;10.70;99.90;;;;;;5073328;28;20021;-75
2023/04/01 03:16:04;;;;;;;6.28;3.28;;;10.70;99.90;;;;;;5072962;28;20117;-75
2023/04/01 03:18:30;;;;;;;8.77;3.92;;;10.70;99.90;;;;;;5055696;28;20036;-75
2023/04/01 03:20:56;;;;;;;7.45;3.67;;;10.70;99.90;;;;;;5073112;28;20025;-75
2023/04/01 03:23:23;;;;;;;9.98;3.97;;;10.70;99.90;;;;;;5073120;28;20029;-76
2023/04/01 03:25:50;;;;;;;9.38;4.00;;;10.80;99.90;;;;;;5072976;28;20025;-76
2023/04/01 03:28:15;;;;;;;10.25;4.20;;;10.70;99.90;;;;;;5072999;28;20076;-75
2023/04/01 03:30:41;;;;;;;9.48;4.22;;;10.70;99.90;;;;;;5071994;28;20028;-75
2023/04/01 03:33:07;;;;;;;8.90;4.30;;;10.70;99.90;;;;;;5072093;28;20054;-75
2023/04/01 03:35:35;;;;;;;12.50;4.45;;;10.70;99.90;;;;;;5071976;28;20087;-75
2023/04/01 03:38:01;;;;;;;9.07;4.10;;;10.70;99.90;;;;;;5072969;28;20092;-75
2023/04/01 03:40:27;;;;;;;9.82;4.05;;;10.70;99.90;;;;;;5072963;28;20029;-75
2023/04/01 03:42:52;;;;;;;10.13;4.57;;;10.70;99.90;;;;;;5055359;28;20033;-76
2023/04/01 03:45:18;;;;;;;8.85;4.18;;;10.70;99.90;;;;;;5071754;28;20060;-75
2023/04/01 03:47:44;;;;;;;12.68;5.10;;;10.70;99.90;;;;;;5071832;28;20048;-76
2023/04/01 03:50:10;;;;;;;10.43;4.35;;;10.70;99.90;;;;;;5071922;28;20055;-76
2023/04/01 03:52:36;;;;;;;10.13;4.88;;;10.70;99.90;;;;;;5071743;28;20029;-75
2023/04/01 03:55:02;;;;;;;12.65;5.32;;;10.70;99.90;;;;;;5072844;28;20045;-75
2023/04/01 03:57:28;;;;;;;10.10;4.45;;;10.70;99.90;;;;;;5072812;28;20021;-75
2023/04/01 03:59:53;;;;;;;10.88;5.32;;;10.60;99.90;;;;;;5072756;28;20067;-75
2023/04/01 04:02:19;;;;;;;10.98;5.60;;;10.60;99.90;;;;;;5072694;28;20025;-76
2023/04/01 04:04:46;;;;;;;10.20;5.05;;;10.60;99.90;;;;;;5071606;28;20128;-75
2023/04/01 04:07:12;;;;;;;11.88;4.68;;;10.60;99.90;;;;;;5072675;28;20080;-75
2023/04/01 04:09:37;;;;;;;11.27;5.10;;;10.60;99.90;;;;;;5071803;28;20398;-75
2023/04/01 04:12:05;;;;;;;11.73;4.60;;;10.50;99.90;;;;;;5071600;28;20029;-76
2023/04/01 04:14:31;;;;;;;8.82;4.60;;;10.60;99.90;;;;;;5071844;28;20088;-75
2023/04/01 04:16:56;;;;;;;8.52;4.55;;;10.50;99.90;;;;;;5071626;28;20021;-75
2023/04/01 04:19:22;;;;;;;9.35;3.95;;;10.50;99.90;;;;;;5054966;28;20021;-75
2023/04/01 04:21:48;;;;;;;11.82;4.70;;;10.50;99.90;;;;;;5072697;28;20025;-75
2023/04/01 04:24:13;;;;;;;8.90;4.22;;;10.50;99.90;;;;;;5072660;28;20032;-75
2023/04/01 04:26:39;;;;;;;8.35;4.00;;;10.60;99.90;;;;;;5071624;28;20033;-76
2023/04/01 04:29:05;;;;;;;8.52;4.25;;;10.60;99.90;;;;;;5076124;28;20029;-75
2023/04/01 04:31:30;;;;;;;7.38;3.40;;;10.70;99.90;;;;;;5076106;28;20033;-75
2023/04/01 04:33:58;;;;;;;7.25;3.75;;;10.70;99.90;;;;;;5076045;28;20046;-75
2023/04/01 04:36:23;;;;;;;8.55;3.35;;;10.60;99.90;;;;;;5076010;28;20028;-75
2023/04/01 04:38:49;;;;;;;8.07;2.92;;;10.60;99.90;;;;;;5058363;28;20040;-75
2023/04/01 04:41:17;;;;;;;5.47;2.80;;;10.60;99.90;;;;;;5075965;28;20056;-75
2023/04/01 04:43:58;;;;;;;4.80;2.30;;;10.60;99.90;;;;;;5074956;28;20039;-76
2023/04/01 04:46:24;;;;;;;4.90;2.40;;;10.60;99.90;;;;;;5075846;28;20080;-75
2023/04/01 04:48:50;;;;;;;4.00;2.30;;;10.60;99.90;;;;;;5075781;28;20027;-75
2023/04/01 04:51:17;;;;;;;4.43;2.40;;;10.50;99.90;;;;;;5058113;28;20022;-75
2023/04/01 04:53:42;;;;;;;4.30;2.35;;;10.60;99.90;;;;;;5074670;28;20124;-75
2023/04/01 04:56:08;;;;;;;3.88;2.28;;;10.60;99.90;;;;;;5074599;28;20029;-76
2023/04/01 04:58:34;;;;;;;4.90;2.55;;;10.50;99.90;;;;;;5074571;28;20036;-75
2023/04/01 05:01:15;;;;;;;4.55;2.50;;;10.50;99.90;;;;;;5075531;28;20037;-75
2023/04/01 05:03:41;;;;;;;4.85;2.80;;;10.50;99.90;;;;;;5074488;28;20025;-75
2023/04/01 05:06:09;;;;;;;5.97;3.00;;;10.50;99.90;;;;;;5074377;28;20036;-75
2023/04/01 05:08:35;;;;;;;5.10;2.63;;;10.50;99.90;;;;;;5075429;28;20021;-76
2023/04/01 05:11:02;;;;;;;2.88;1.90;;;10.60;99.90;;;;;;5074362;28;20017;-75
2023/04/01 05:13:28;;;;;;;5.03;2.63;;;10.50;99.90;;;;;;5075342;28;20025;-75
2023/04/01 05:15:53;;;;;;;5.70;2.65;;;10.50;99.90;;;;;;5075306;28;20017;-76
2023/04/01 05:18:19;;;;;;;5.63;2.63;;;10.50;99.90;;;;;;5075232;28;20037;-75
2023/04/01 05:20:53;;;;;;;5.65;2.92;;;10.50;99.90;;;;;;5075318;28;20040;-75
2023/04/01 05:23:23;;;;;;;5.20;2.67;;;10.50;99.90;;;;;;5075323;28;20021;-75
2023/04/01 05:25:50;;;;;;;6.55;3.30;;;10.50;99.90;;;;;;5074258;28;20021;-75
2023/04/01 05:28:17;;;;;;;4.93;2.78;;;10.50;99.90;;;;;;5074983;28;20017;-76
2023/04/01 05:30:43;;;;;;;7.07;2.58;;;10.50;99.90;;;;;;5075004;28;20074;-75
2023/04/01 05:33:11;;;;;;;6.38;2.95;;;10.50;99.90;;;;;;5074968;28;20080;-75
2023/04/01 05:35:37;;;;;;;6.10;2.63;;;10.50;99.90;;;;;;5073889;28;20084;-75
2023/04/01 05:38:03;;;;;;;4.50;2.50;;;10.50;99.90;;;;;;5074007;28;20033;-75
2023/04/01 05:40:29;;;;;;;6.93;3.55;;;10.50;99.90;;;;;;5073907;28;20040;-75
2023/04/01 05:42:55;;;;;;;5.72;3.28;;;10.50;99.90;;;;;;5073930;28;20490;-76
2023/04/01 05:45:21;;;;;;;5.95;3.25;;;10.50;99.90;;;;;;5074432;28;20060;-76
2023/04/01 05:47:48;;;;;;;5.97;3.13;;;10.50;99.90;;;;;;5073727;28;20049;-77
2023/04/01 05:50:14;;;;;;;8.25;3.95;;;10.60;99.90;;;;;;5073643;28;20055;-75
2023/04/01 05:52:40;;;;;;;6.00;3.33;;;10.50;99.90;;;;;;5074596;28;20013;-75
2023/04/01 05:55:06;;;;;;;7.85;3.83;;;10.50;99.90;;;;;;5074521;28;20029;-75
2023/04/01 05:57:32;;;;;;;7.20;3.65;;;10.50;99.90;;;;;;5073479;28;20037;-76
2023/04/01 05:59:57;;;;;;;7.95;4.32;;;10.60;99.90;;;;;;5040281;28;20033;-76
2023/04/01 06:02:23;;;;;;;8.00;4.18;;;10.60;99.90;;;;;;5056558;28;20037;-76
2023/04/01 06:04:54;;;;;;;8.73;4.63;;;10.60;99.90;;;;;;5074241;28;20029;-77
2023/04/01 06:07:20;;;;;;;8.60;4.53;;;10.60;99.90;;;;;;5057431;28;20017;-75
2023/04/01 06:09:45;;;;;;;9.38;5.00;;;10.60;99.90;;;;;;5074361;28;20021;-76
2023/04/01 06:12:26;;;;;;;11.43;5.15;;;10.60;99.90;;;;;;5056543;28;20028;-76
2023/04/01 06:15:01;;;;;;;11.00;4.93;;;10.60;99.90;;;;;;5073186;28;20052;-76
2023/04/01 06:17:45;;;;;;;11.13;5.75;;;10.70;99.90;;;;;;5074122;28;20052;-76
2023/04/01 06:20:29;;;;;;;11.10;5.22;;;10.70;99.90;;;;;;5074054;28;20029;-77
2023/04/01 06:23:26;;;;;;;13.30;5.85;;;10.70;99.90;;;;;;5073018;28;20093;-76
2023/04/01 06:26:18;;;;;;;12.10;5.80;;;10.70;99.90;;;;;;5072928;28;20035;-76
2023/04/01 06:29:29;;;;;;;13.03;6.20;;;10.60;99.90;;;;;;5073963;28;20017;-76
2023/04/01 06:32:07;;;;;;;14.15;6.88;;;10.60;99.90;;;;;;5026936;28;20270;-76
2023/04/01 06:34:44;;;;;;;12.55;6.20;;;10.70;99.90;;;;;;5072783;28;20025;-76
2023/04/01 06:37:22;;;;;;;14.70;7.03;;;10.70;99.90;;;;;;5072748;28;20432;-76
2023/04/01 06:40:00;;;;;;;15.30;7.18;;;10.70;99.90;;;;;;5073846;28;20032;-77
2023/04/01 06:42:36;;;;;;;16.05;6.45;;;10.80;99.90;;;;;;5073568;28;20021;-76
2023/04/01 06:45:11;;;;;;;14.82;6.93;;;10.80;99.90;;;;;;5072421;28;20045;-77
2023/04/01 06:48:15;;;;;;;13.82;6.13;;;10.80;99.90;;;;;;5073728;28;20056;-77
2023/04/01 06:51:19;;;;;;;13.73;5.65;;;10.80;99.90;;;;;;5021983;28;20101;-76
2023/04/01 06:53:50;;;;;;;14.55;5.75;;;10.90;99.90;;;;;;5032919;28;20033;-76
2023/04/01 06:56:19;;;;;;;16.25;6.38;;;10.90;99.90;;;;;;5073446;28;20028;-76
2023/04/01 06:58:56;;;;;;;16.33;6.93;;;10.90;99.90;;;;;;5072358;28;20033;-77
2023/04/01 07:01:47;;;;;;;14.25;5.90;;;10.90;99.90;;;;;;5073508;28;20409;-76
2023/04/01 07:04:31;;;;;;;12.63;5.80;;;10.90;99.90;;;;;;5073346;28;20028;-76
2023/04/01 07:07:00;;;;;;;15.60;5.97;;;10.90;99.90;;;;;;5073354;28;20056;-75
2023/04/01 07:09:36;;;;;;;12.10;5.80;;;11.00;99.90;;;;;;5073278;28;20021;-75
2023/04/01 07:12:11;;;;;;;12.40;5.75;;;11.00;99.90;;;;;;5073219;28;20090;-76
2023/04/01 07:14:41;;;;;;;17.20;6.65;;;11.00;99.90;;;;;;5072375;28;20017;-76
2023/04/01 07:17:28;;;;;;;13.60;6.47;;;11.00;99.90;;;;;;5073214;28;20052;-76
2023/04/01 07:20:22;;;;;;;12.18;5.63;;;11.00;99.90;;;;;;5073170;28;20021;-75
2023/04/01 07:22:51;;;;;;;12.57;5.13;;;11.10;99.90;;;;;;5073155;28;20032;-75
2023/04/01 07:25:20;;;;;;;12.82;4.93;;;11.10;99.90;;;;;;5073021;28;20017;-75
2023/04/01 07:27:46;;;;;;;13.55;5.75;;;11.10;99.90;;;;;;5073046;28;20017;-77
2023/04/01 07:30:21;;;;;;;14.00;5.43;;;11.10;99.90;;;;;;5073041;28;20059;-76
2023/04/01 07:33:11;;;;;;;16.38;5.80;;;11.10;99.90;;;;;;5073013;28;20025;-75
2023/04/01 07:36:18;;;;;;;12.82;5.38;;;11.20;99.90;;;;;;5072045;28;20088;-75
2023/04/01 07:39:09;;;;;;;16.40;5.53;;;11.20;99.90;;;;;;5055465;28;20045;-75
2023/04/01 07:41:47;;;;;;;14.35;5.57;;;11.10;99.90;;;;;;5071948;28;20025;-75
2023/04/01 07:44:20;;;;;;;17.15;6.80;;;11.20;99.90;;;;;;5072905;28;20076;-76
2023/04/01 07:46:55;;;;;;;18.80;6.50;;;11.20;99.90;;;;;;5032099;28;20042;-76
2023/04/01 07:49:20;;;;;;;16.02;6.75;;;11.20;99.90;;;;;;5032114;28;20036;-76
2023/04/01 07:52:15;;;;;;;15.50;6.38;;;11.20;99.90;;;;;;5033084;28;20024;-78
2023/04/01 07:54:50;;;;;;;13.20;5.93;;;11.30;99.90;;;;;;5032075;28;20018;-77
2023/04/01 07:57:28;;;;;;;13.48;5.32;;;11.30;99.90;;;;;;5032011;28;20030;-78
2023/04/01 08:00:06;;;;;;;16.10;6.22;;;11.30;99.90;;;;;;5048626;28;20081;-76
2023/04/01 08:03:03;;;;;;;15.57;6.78;;;11.30;99.90;;;;;;5034394;28;20049;-76
2023/04/01 08:05:36;;;;;;;12.88;5.45;;;11.20;99.90;;;;;;5036695;28;20034;-75
2023/04/01 08:08:06;;;;;;;14.43;5.55;;;11.20;99.90;;;;;;5035718;28;20438;-77
2023/04/01 08:10:55;;;;;;;15.32;6.70;;;11.30;99.90;;;;;;5035637;28;20033;-76
2023/04/01 08:13:20;;;;;;;15.05;6.38;;;11.20;99.90;;;;;;5052185;28;20022;-76
2023/04/01 08:16:12;;;;;;;15.73;6.00;;;11.20;99.90;;;;;;5035641;28;20041;-76
2023/04/01 08:18:43;;;;;;;12.75;4.97;;;11.20;99.90;;;;;;5031655;28;20045;-76
2023/04/01 08:21:23;;;;;;;12.63;4.75;;;11.20;99.90;;;;;;5035515;28;20026;-75
2023/04/01 08:23:52;;;;;;;13.98;5.18;;;11.20;99.90;;;;;;5036558;28;20459;-75
2023/04/01 08:26:47;;;;;;;10.25;4.45;;;11.20;99.90;;;;;;5036240;28;20026;-76
2023/04/01 08:29:23;;;;;;;10.90;4.13;;;11.20;99.90;;;;;;5031708;28;20131;-75
2023/04/01 08:31:56;;;;;;;10.82;4.40;;;11.20;99.90;;;;;;5036292;28;20116;-76
2023/04/01 08:34:26;;;;;;;7.93;3.40;;;11.20;99.90;;;;;;5036225;28;20018;-76
2023/04/01 08:37:06;;;;;;;10.07;4.45;;;11.20;99.90;;;;;;5036395;28;20047;-76
2023/04/01 08:39:47;;;;;;;11.20;4.65;;;11.20;99.90;;;;;;5051724;28;20057;-75
2023/04/01 08:42:39;;;;;;;8.98;3.83;;;11.20;99.90;;;;;;5036134;28;20030;-76
2023/04/01 08:45:30;;;;;;;9.07;4.13;;;11.20;99.90;;;;;;5047185;28;20049;-76
2023/04/01 08:48:08;;;;;;;8.20;3.90;;;11.20;99.90;;;;;;5076020;28;20021;-75
2023/04/01 08:50:45;;;;;;;9.40;4.20;;;11.20;99.90;;;;;;5074837;28;20027;-76
2023/04/01 08:53:33;;;;;;;9.27;3.72;;;11.20;99.90;;;;;;5075758;28;20029;-75
2023/04/01 08:56:17;;;;;;;8.05;3.90;;;11.20;99.90;;;;;;5074639;28;20035;-75
2023/04/01 08:59:04;;;;;;;7.63;3.45;;;11.20;99.90;;;;;;5075585;28;20035;-75
2023/04/01 09:02:08;;;;;;;8.75;3.95;;;11.20;99.90;;;;;;5075700;28;20087;-76
2023/04/01 09:04:55;;;;;;;11.02;4.25;;;11.30;99.90;;;;;;5074417;28;20052;-76
2023/04/01 09:07:42;;;;;;;10.70;4.75;;;11.30;99.90;;;;;;5074562;28;20056;-76
2023/04/01 09:10:38;;;;;;;12.90;4.93;;;11.30;99.90;;;;;;5074432;28;20044;-75
2023/04/01 09:13:38;;;;;;;9.38;4.32;;;11.30;99.90;;;;;;5074056;28;20025;-75
2023/04/01 09:16:22;;;;;;;10.38;4.68;;;11.20;99.90;;;;;;5075342;28;20025;-76
2023/04/01 09:19:07;;;;;;;13.45;4.55;;;11.20;99.90;;;;;;5075217;28;20036;-76
2023/04/01 09:22:03;;;;;;;11.05;5.43;;;11.20;99.90;;;;;;5075406;28;20017;-76
2023/04/01 09:24:46;;;;;;;13.85;5.28;;;11.20;99.90;;;;;;5075194;28;20029;-77
2023/04/01 09:27:54;;;;;;;12.55;5.60;;;11.20;99.90;;;;;;5075045;28;20048;-77
2023/04/01 09:30:33;;;;;;;13.13;5.07;;;11.30;99.90;;;;;;5074132;28;20017;-76
2023/04/01 09:33:26;;;;;;;12.57;5.70;;;11.30;99.90;;;;;;5075108;28;20032;-75
2023/04/01 09:36:18;;;;;;;13.43;5.00;;;11.30;99.90;;;;;;5073936;28;20112;-76
2023/04/01 09:39:13;;;;;;;14.73;5.28;;;11.30;99.90;;;;;;5065618;28;20047;-75
2023/04/01 09:42:00;;;;;;;14.38;5.95;;;11.30;99.90;;;;;;5073831;28;20033;-75
2023/04/01 09:44:32;;;;;;;14.60;6.40;;;11.30;99.90;;;;;;5073608;28;20051;-76
2023/04/01 09:47:23;;;;;;;16.88;7.00;;;11.30;99.90;;;;;;5074750;28;20130;-76
2023/04/01 09:49:49;;;;;;;21.08;7.10;;;11.30;99.90;;;;;;5074565;28;20039;-75
2023/04/01 09:52:40;;;;;;;13.60;6.07;;;11.30;99.90;;;;;;5074765;28;20017;-75
2023/04/01 09:55:08;;;;;;;16.92;6.57;;;11.30;99.90;;;;;;5073518;28;20036;-77
2023/04/01 09:57:40;;;;;;;17.27;6.45;;;11.30;99.90;;;;;;5074504;28;20496;-76
2023/04/01 10:00:27;;;;;;;14.85;6.60;;;11.30;99.90;;;;;;5074574;28;20039;-75
2023/04/01 10:02:53;;;;;;;14.18;6.93;;;11.40;99.90;;;;;;5073328;28;20029;-75
2023/04/01 10:05:50;;;;;;;13.15;6.38;;;11.40;99.90;;;;;;5074180;28;20033;-76
2023/04/01 10:08:22;;;;;;;15.43;6.03;;;11.40;99.90;;;;;;5074227;28;20055;-76
2023/04/01 10:10:56;;;;;;;15.48;6.57;;;11.40;99.90;;;;;;5074421;28;20025;-76
2023/04/01 10:13:31;;;;;;;13.68;5.72;;;11.50;99.90;;;;;;5073078;28;20036;-76
2023/04/01 10:15:59;;;;;;;16.52;6.03;;;11.50;99.90;;;;;;5074198;28;20130;-76
2023/04/01 10:18:43;;;;;;;14.70;6.15;;;11.50;99.90;;;;;;5073019;28;20021;-76
2023/04/01 10:21:47;;;;;;;11.95;5.57;;;11.50;99.90;;;;;;5074154;28;20039;-76
2023/04/01 10:24:34;;;;;;;15.77;5.80;;;11.60;99.90;;;;;;5072837;28;20086;-76
2023/04/01 10:27:39;;;;;;;10.70;5.18;;;11.50;99.90;;;;;;5073702;28;20028;-76
2023/04/01 10:30:26;;;;;;;9.88;4.43;;;11.50;99.90;;;;;;5072964;28;20021;-76
2023/04/01 10:33:16;;;;;;;12.10;5.28;;;11.50;99.90;;;;;;5072911;28;20044;-76
2023/04/01 10:36:09;;;;;;;13.90;5.32;;;11.50;99.90;;;;;;5073838;28;20404;-76
2023/04/01 10:39:00;;;;;;;12.38;5.15;;;11.40;99.90;;;;;;5073815;28;20033;-76
2023/04/01 10:41:49;;;;;;;12.32;5.20;;;11.50;99.90;;;;;;5072677;28;20040;-76
2023/04/01 10:44:37;;;;;;;11.23;5.30;;;11.50;99.90;;;;;;5073855;28;20108;-76
2023/04/01 10:47:20;;;;;;;12.52;5.15;;;11.50;99.90;;;;;;5073767;28;20041;-76
2023/04/01 10:50:24;;;;;;;14.35;6.05;;;11.50;99.90;;;;;;5072606;28;20036;-76
2023/04/01 10:53:08;;;;;;;12.75;4.40;;;11.50;99.90;;;;;;5073648;28;20036;-76
2023/04/01 10:56:25;;;;;;;12.65;5.10;;;11.50;99.90;;;;;;5073495;28;20021;-76
2023/04/01 10:59:14;;;;;;;12.38;5.50;;;11.50;99.90;;;;;;4992682;28;20516;-76
2023/04/01 11:02:01;;;;;;;11.05;4.97;;;11.50;99.90;;;;;;4973144;28;20051;-76
2023/04/01 11:05:02;;;;;;;10.25;4.80;;;11.60;99.90;;;;;;5050217;28;20097;-76
2023/04/01 11:08:05;;;;;;;12.80;4.85;;;11.60;99.90;;;;;;5059500;28;20052;-77
2023/04/01 11:10:39;;;;;;;;;;;11.60;99.90;;;;;;5073669;28;20028;-77
2023/04/01 11:13:27;;;;;;;8.88;4.22;;;11.60;99.90;;;;;;5072222;28;19943;-77
2023/04/01 11:15:59;;;;;;;13.25;5.60;;;11.60;99.90;;;;;;5073259;28;20021;-76
2023/04/01 11:18:58;;;;;;;11.32;5.10;;;11.60;99.90;;;;;;5072169;28;20071;-76
2023/04/01 11:21:49;;;;;;;10.07;4.25;;;11.60;99.90;;;;;;5073292;28;20029;-76
2023/04/01 11:24:33;;;;;;;10.20;4.30;;;11.70;99.90;;;;;;5073221;28;20025;-76
2023/04/01 11:27:21;;;;;;;9.45;4.03;;;11.70;99.90;;;;;;5071913;28;20040;-76
2023/04/01 11:30:08;;;;;;;9.18;4.20;;;11.70;99.90;;;;;;5073248;28;20593;-76
2023/04/01 11:33:13;;;;;;;8.38;3.90;;;11.80;99.90;;;;;;5073025;28;20025;-76
2023/04/01 11:36:16;;;;;;;8.93;3.83;;;11.80;99.90;;;;;;5032226;28;20037;-76
2023/04/01 11:38:57;;;;;;;;;;;11.90;99.90;;;;;;5077548;28;20437;-76
2023/04/01 11:41:44;;;;;;;10.32;4.00;;;11.90;99.90;;;;;;5076120;28;19905;-76
2023/04/01 11:44:29;;;;;;;7.97;3.33;;;11.90;99.90;;;;;;5076974;28;20033;-76
2023/04/01 11:47:13;;;;;;;8.02;3.35;;;11.90;99.90;;;;;;5076983;28;20037;-77
2023/04/01 11:49:54;;;;;;;7.85;3.80;;;11.90;99.90;;;;;;5077079;28;20023;-77
2023/04/01 11:52:41;;;;;;;9.45;4.00;;;11.90;99.90;;;;;;5077025;28;20036;-76
2023/04/01 11:55:28;;;;;;;9.77;4.18;;;11.90;99.90;;;;;;5076771;28;20113;-76
2023/04/01 11:58:07;;;;;;;8.00;4.07;;;11.90;99.90;;;;;;5076828;28;20029;-76
2023/04/01 12:00:55;;;;;;;8.98;4.65;;;11.90;99.90;;;;;;5076793;28;20082;-76
2023/04/01 12:03:21;;;;;;;9.50;4.53;;;11.90;99.90;;;;;;5076734;28;20032;-76
2023/04/01 12:06:11;;;;;;;11.07;4.80;;;11.80;99.90;;;;;;5076556;28;20025;-76
2023/04/01 12:08:48;;;;;;;12.90;4.97;;;11.90;99.90;;;;;;5076661;28;20021;-76
2023/04/01 12:11:20;;;;;;;11.63;5.53;;;11.90;99.90;;;;;;5076536;28;20048;-76
2023/04/01 12:13:49;;;;;;;10.40;4.77;;;11.90;99.90;;;;;;5076474;28;20025;-76
2023/04/01 12:16:40;;;;;;;9.98;4.75;;;11.90;99.90;;;;;;5076410;28;20290;-76
2023/04/01 12:19:08;;;;;;;11.63;5.68;;;11.80;99.90;;;;;;5076435;28;20036;-76
2023/04/01 12:21:43;;;;;;;11.77;5.15;;;11.90;99.90;;;;;;5076328;28;20040;-76
2023/04/01 12:24:27;;;;;;;11.15;5.38;;;11.90;99.90;;;;;;5076348;28;20093;-76
2023/04/01 12:27:18;;;;;;;11.70;5.30;;;12.00;99.90;;;;;;5075119;28;20040;-76
2023/04/01 12:30:11;;;;;;;9.57;4.65;;;12.00;99.90;;;;;;5076168;28;20028;-76
2023/04/01 12:32:52;;;;;;;6.40;3.42;;;12.10;99.90;;;;;;5076339;28;20073;-76
2023/04/01 12:35:29;;;;;;;8.55;3.78;;;12.10;99.90;;;;;;5076249;28;20116;-76
2023/04/01 12:38:17;;;;;;;7.15;3.63;;;12.10;99.90;;;;;;5076096;28;20085;-76
2023/04/01 12:41:10;;;;;;;6.90;3.38;;;12.10;99.90;;;;;;5074960;28;20036;-77
2023/04/01 12:44:13;;;;;;;6.75;3.67;;;12.20;99.90;;;;;;5074975;28;20151;-76
2023/04/01 12:46:41;;;;;;;7.20;3.58;;;12.20;99.90;;;;;;5075764;28;20057;-76
2023/04/01 12:49:27;;;;;;;6.47;3.53;;;12.20;99.90;;;;;;5075153;28;20036;-76
2023/04/01 12:52:28;;;;;;;8.25;3.85;;;12.20;99.90;;;;;;5075859;28;20021;-76
2023/04/01 12:55:20;;;;;;;7.22;3.45;;;12.30;99.90;;;;;;5044914;28;20073;-76
2023/04/01 12:58:01;;;;;;;5.97;2.85;;;12.20;99.90;;;;;;5075743;28;20084;-76
2023/04/01 13:01:04;;;;;;;5.80;3.05;;;12.20;99.90;;;;;;5075680;28;20017;-76
2023/04/01 13:03:33;;;;;;;7.10;3.25;;;12.20;99.90;;;;;;5074518;28;20031;-76
2023/04/01 13:06:10;;;;;;;5.65;3.03;;;12.20;99.90;;;;;;5075425;28;20033;-76
2023/04/01 13:08:51;;;;;;;7.45;3.72;;;12.30;99.90;;;;;;5075451;28;20025;-76
2023/04/01 13:11:25;;;;;;;7.95;3.28;;;12.30;99.90;;;;;;5075601;28;20035;-77
2023/04/01 13:14:06;;;;;;;6.68;3.63;;;12.40;99.90;;;;;;5075350;28;20025;-76
2023/04/01 13:17:10;;;;;;;5.78;3.45;;;12.40;99.90;;;;;;5075356;28;20056;-76
2023/04/01 13:19:38;;;;;;;7.32;3.55;;;12.30;99.90;;;;;;5069833;28;20037;-76
2023/04/01 13:22:17;;;;;;;6.72;3.10;;;12.30;99.90;;;;;;5075249;28;20025;-77
2023/04/01 13:24:49;;;;;;;7.13;3.45;;;12.30;99.90;;;;;;5074096;28;20060;-77
2023/04/01 13:27:25;;;;;;;6.10;3.50;;;12.30;99.90;;;;;;5075140;28;20028;-76
2023/04/01 13:30:17;;;;;;;7.15;3.53;;;12.30;99.90;;;;;;5074136;28;20024;-76